Time;durP1;ratioP1;P1;durP2;ratioP2;P2;SDS_P1;SDS_P2;PMS_P1;PMS_P2;Temp;Humidity;BMP_temperature;BMP_pressure;BME280_temperature;BME280_humidity;BME280_pressure;Samples;Min_cycle;Max_cycle;Signal;HPM_P1;HPM_P2
2023/08/25 00:00:48;;;;;;;8.88;7.97;;;;;;;20.21;100.00;100651.09;3587785;40;20094;-66
2023/08/25 00:03:13;;;;;;;9.02;7.60;;;;;;;20.27;100.00;100665.97;3584882;40;20068;-65
2023/08/25 00:05:40;;;;;;;11.52;7.70;;;;;;;20.11;100.00;100643.03;3585009;40;20108;-66
2023/08/25 00:08:07;;;;;;;8.13;7.43;;;;;;;20.33;100.00;100687.13;3584998;40;20040;-66
2023/08/25 00:10:34;;;;;;;9.65;7.53;;;;;;;20.12;100.00;100657.53;3584774;40;20387;-65
2023/08/25 00:13:00;;;;;;;8.25;7.50;;;;;;;20.30;100.00;100691.06;3582422;40;20048;-65
2023/08/25 00:15:26;;;;;;;8.80;7.90;;;;;;;20.30;100.00;100699.25;3586015;40;20055;-66
2023/08/25 00:17:55;;;;;;;9.05;8.07;;;;;;;20.27;100.00;100682.34;3583779;40;20068;-65
2023/08/25 00:20:21;;;;;;;8.48;7.68;;;;;;;20.30;100.00;100698.41;3584194;40;20331;-65
2023/08/25 00:22:46;;;;;;;9.07;8.20;;;;;;;20.27;100.00;100696.00;3582407;40;20130;-65
2023/08/25 00:25:13;;;;;;;9.27;8.30;;;;;;;20.30;100.00;100698.41;3584651;40;21589;-65
2023/08/25 00:27:39;;;;;;;8.98;8.05;;;;;;;20.28;100.00;100708.63;3582586;40;20141;-65
2023/08/25 00:30:08;;;;;;;11.48;8.38;;;;;;;20.24;100.00;100699.06;3583632;40;20064;-65
2023/08/25 00:32:34;;;;;;;9.30;8.40;;;;;;;20.22;100.00;100698.34;3584058;40;20334;-65
2023/08/25 00:34:59;;;;;;;9.77;8.80;;;;;;;20.23;100.00;100692.72;3583058;40;20331;-65
2023/08/25 00:37:25;;;;;;;9.45;8.48;;;;;;;20.25;100.00;100706.22;3582181;40;20059;-65
2023/08/25 00:39:51;;;;;;;9.60;8.80;;;;;;;20.20;100.00;100703.09;3582220;40;20063;-65
2023/08/25 00:42:16;;;;;;;10.13;9.13;;;;;;;20.20;100.00;100708.56;3585594;40;20064;-65
2023/08/25 00:44:42;;;;;;;12.15;9.50;;;;;;;20.16;100.00;100700.69;3582016;40;20315;-65
2023/08/25 00:47:07;;;;;;;14.85;9.68;;;;;;;20.15;100.00;100704.44;3586746;40;20426;-65
2023/08/25 00:49:33;;;;;;;11.98;10.32;;;;;;;20.14;100.00;100710.94;3583547;40;20088;-65
2023/08/25 00:52:01;;;;;;;10.80;9.73;;;;;;;20.12;100.00;100704.75;3584065;40;20060;-66
2023/08/25 00:54:29;;;;;;;11.23;10.13;;;;;;;19.91;100.00;100664.19;3583864;40;20464;-66
2023/08/25 00:56:57;;;;;;;10.73;9.38;;;;;;;20.12;100.00;100696.56;3576942;40;20044;-65
2023/08/25 00:59:23;;;;;;;11.63;10.43;;;;;;;20.11;100.00;100703.06;3584626;40;20318;-65
2023/08/25 01:01:49;;;;;;;10.85;9.68;;;;;;;20.10;100.00;100703.22;3585384;40;20060;-66
2023/08/25 01:04:14;;;;;;;13.75;10.77;;;;;;;20.09;100.00;100702.34;3586513;40;20044;-65
2023/08/25 01:06:40;;;;;;;11.80;10.68;;;;;;;20.08;100.00;100699.81;3578886;40;20059;-65
2023/08/25 01:09:10;;;;;;;11.25;10.05;;;;;;;20.04;100.00;100703.84;3582488;40;20082;-65
2023/08/25 01:12:04;;;;;;;11.30;10.18;;;;;;;20.03;100.00;100696.69;3586555;40;20047;-65
2023/08/25 01:14:58;;;;;;;;;;;;;;;20.01;100.00;100695.97;3583650;40;20538;-66
2023/08/25 01:17:44;;;;;;;13.65;11.15;;;;;;;19.98;100.00;100693.56;3587968;40;20002;-65
2023/08/25 01:20:14;;;;;;;13.27;11.40;;;;;;;20.02;100.00;100690.38;3583406;40;20797;-66
2023/08/25 01:23:10;;;;;;;15.35;13.82;;;;;;;20.02;100.00;100684.91;3583435;40;20065;-66
2023/08/25 01:25:37;;;;;;;12.75;11.38;;;;;;;20.00;100.00;100686.94;3584651;40;20148;-65
2023/08/25 01:28:04;;;;;;;12.82;11.52;;;;;;;19.84;100.00;100665.00;3581986;40;20052;-65
2023/08/25 01:30:34;;;;;;;11.50;10.40;;;;;;;19.98;100.00;100686.25;3584553;40;20060;-65
2023/08/25 01:33:04;;;;;;;12.93;11.05;;;;;;;19.97;100.00;100684.53;3585556;40;20091;-65
2023/08/25 01:36:28;;;;;;;12.80;11.57;;;;;;;19.99;100.00;100681.66;3584100;40;20393;-65
2023/08/25 01:39:08;;;;;;;16.55;11.50;;;;;;;19.99;100.00;100677.03;3569034;40;20056;-65
2023/08/25 01:41:59;;;;;;;12.70;11.40;;;;;;;19.98;100.00;100683.53;3582681;40;20464;-65
2023/08/25 01:44:29;;;;;;;15.55;11.40;;;;;;;19.99;100.00;100684.38;3582249;40;20052;-65
2023/08/25 01:47:05;;;;;;;12.82;11.55;;;;;;;20.01;100.00;100672.25;3573653;40;20064;-65
2023/08/25 01:49:32;;;;;;;12.55;11.18;;;;;;;20.02;100.00;100675.88;3585782;40;20060;-65
2023/08/25 01:52:00;;;;;;;13.05;11.68;;;;;;;20.07;100.00;100676.22;3587853;40;20055;-65
2023/08/25 01:54:26;;;;;;;14.68;12.48;;;;;;;19.69;100.00;100613.75;3577812;40;20048;-66
2023/08/25 01:56:52;;;;;;;12.43;11.20;;;;;;;20.10;100.00;100671.31;3576344;40;20084;-65
2023/08/25 01:59:17;;;;;;;13.02;11.73;;;;;;;20.12;100.00;100666.56;3585757;40;20102;-65
2023/08/25 02:01:43;;;;;;;13.35;12.02;;;;;;;20.07;100.00;100649.78;3577396;40;20056;-65
2023/08/25 02:04:09;;;;;;;12.75;11.55;;;;;;;20.16;100.00;100653.44;3581551;40;20631;-65
2023/08/25 02:06:35;;;;;;;12.70;11.60;;;;;;;20.16;100.00;100654.28;3586187;40;20051;-65
2023/08/25 02:09:02;;;;;;;14.15;12.68;;;;;;;20.15;100.00;100649.84;3587280;40;20309;-65
2023/08/25 02:11:27;;;;;;;14.05;12.30;;;;;;;20.17;100.00;100656.03;3572226;40;20088;-65
2023/08/25 02:13:53;;;;;;;13.93;12.60;;;;;;;20.18;100.00;100657.72;3580987;40;20052;-66
2023/08/25 02:16:18;;;;;;;14.57;12.93;;;;;;;20.18;100.00;100657.72;3583065;40;20048;-65
2023/08/25 02:18:44;;;;;;;14.48;13.10;;;;;;;20.18;100.00;100657.72;3583889;40;20048;-65
2023/08/25 02:21:10;;;;;;;15.02;13.40;;;;;;;20.18;100.00;100649.53;3583672;40;20273;-65
2023/08/25 02:23:35;;;;;;;16.05;14.30;;;;;;;20.21;100.00;100655.72;3583956;40;20342;-65
2023/08/25 02:26:01;;;;;;;15.38;13.85;;;;;;;20.21;100.00;100651.09;3583568;40;20051;-65
2023/08/25 02:28:28;;;;;;;15.85;14.20;;;;;;;20.21;100.00;100666.63;3582544;40;20056;-65
2023/08/25 02:30:53;;;;;;;15.48;13.57;;;;;;;20.21;100.00;100644.78;3583171;40;20080;-65
2023/08/25 02:33:20;;;;;;;16.25;14.65;;;;;;;20.21;100.00;100650.25;3584143;40;20055;-65
2023/08/25 02:35:46;;;;;;;16.27;14.65;;;;;;;20.17;100.00;100626.00;3581764;40;20052;-65
2023/08/25 02:38:12;;;;;;;16.13;14.73;;;;;;;20.22;100.00;100635.56;3583935;40;20068;-65
2023/08/25 02:40:38;;;;;;;20.05;16.15;;;;;;;20.23;100.00;100632.66;3586540;40;20059;-65
2023/08/25 02:43:06;;;;;;;17.15;15.35;;;;;;;20.23;100.00;100620.91;3581263;40;20063;-65
2023/08/25 02:45:34;;;;;;;18.17;16.38;;;;;;;20.24;100.00;100626.22;3582373;40;20068;-65
2023/08/25 02:48:01;;;;;;;17.60;15.90;;;;;;;20.23;100.00;100619.00;3581158;40;20052;-65
2023/08/25 02:50:27;;;;;;;18.17;16.38;;;;;;;20.24;100.00;100623.47;3582939;40;20040;-66
2023/08/25 02:52:53;;;;;;;20.38;16.80;;;;;;;20.25;100.00;100618.88;3580229;40;20054;-66
2023/08/25 02:55:22;;;;;;;18.33;16.52;;;;;;;20.26;100.00;100617.84;3582906;40;20048;-65
2023/08/25 02:57:49;;;;;;;18.77;15.85;;;;;;;20.26;100.00;100615.09;3580879;40;20059;-65
2023/08/25 03:00:20;;;;;;;18.80;16.95;;;;;;;20.26;100.00;100609.66;3584139;40;20062;-66
2023/08/25 03:02:50;;;;;;;19.77;17.15;;;;;;;20.27;100.00;100605.94;3586383;40;20056;-65
2023/08/25 03:05:16;;;;;;;18.80;16.90;;;;;;;20.09;100.00;100565.06;3583794;40;20056;-66
2023/08/25 03:07:42;;;;;;;19.63;17.73;;;;;;;20.26;100.00;100599.59;3582631;40;20051;-65
2023/08/25 03:10:09;;;;;;;19.73;17.70;;;;;;;20.27;100.00;100597.72;3580642;40;20075;-66
2023/08/25 03:12:35;;;;;;;18.95;17.05;;;;;;;20.28;100.00;100593.97;3582257;40;20052;-65
2023/08/25 03:15:00;;;;;;;19.30;17.45;;;;;;;20.28;100.00;100596.69;3582335;40;20137;-65
2023/08/25 03:17:26;;;;;;;21.67;19.48;;;;;;;20.27;100.00;100586.81;3585015;40;20406;-65
2023/08/25 03:19:52;;;;;;;19.75;17.75;;;;;;;20.30;100.00;100583.75;3582790;40;20044;-65
2023/08/25 03:22:18;;;;;;;20.42;18.33;;;;;;;20.33;100.00;100580.66;3582858;40;20276;-65
2023/08/25 03:24:43;;;;;;;19.63;17.55;;;;;;;20.35;100.00;100575.91;3585886;40;20417;-65
2023/08/25 03:27:09;;;;;;;21.05;18.92;;;;;;;20.37;100.00;100577.47;3583360;40;21839;-65
2023/08/25 03:29:35;;;;;;;21.27;19.17;;;;;;;20.25;100.00;100554.22;3584271;40;20048;-65
2023/08/25 03:32:00;;;;;;;21.10;18.95;;;;;;;20.40;100.00;100581.75;3582729;40;20071;-65
2023/08/25 03:34:29;;;;;;;22.40;20.05;;;;;;;20.40;100.00;100573.56;3583697;40;20056;-65
2023/08/25 03:36:54;;;;;;;22.00;19.70;;;;;;;20.40;100.00;100573.56;3584677;40;20353;-65
2023/08/25 03:39:20;;;;;;;24.27;21.88;;;;;;;20.37;100.00;100560.22;3582422;40;20100;-65
2023/08/25 03:41:46;;;;;;;23.70;21.02;;;;;;;19.89;100.00;100477.16;3583527;40;20696;-65
2023/08/25 03:44:11;;;;;;;23.23;20.95;;;;;;;20.40;100.00;100559.91;3581967;40;20068;-65
2023/08/25 03:46:37;;;;;;;22.30;20.10;;;;;;;20.42;100.00;100560.56;3582365;40;20059;-64
2023/08/25 03:49:03;;;;;;;24.98;22.00;;;;;;;20.39;100.00;100555.44;3582046;40;20107;-64
2023/08/25 03:51:29;;;;;;;23.58;21.08;;;;;;;20.44;100.00;100557.69;3582816;40;20060;-64
2023/08/25 03:53:55;;;;;;;24.17;21.88;;;;;;;20.43;100.00;100561.47;3574175;40;20326;-64
2023/08/25 03:56:21;;;;;;;24.75;22.17;;;;;;;20.43;100.00;100556.00;3583214;40;20116;-64
2023/08/25 03:58:47;;;;;;;24.75;22.15;;;;;;;20.42;100.00;100560.56;3584515;40;20418;-65
2023/08/25 04:01:12;;;;;;;24.40;21.95;;;;;;;20.40;100.00;100551.72;3571266;40;20067;-65
2023/08/25 04:03:39;;;;;;;22.85;20.65;;;;;;;20.34;100.00;100541.44;3584827;40;20040;-65
2023/08/25 04:06:05;;;;;;;23.02;20.63;;;;;;;20.42;100.00;100552.38;3584258;40;20046;-64
2023/08/25 04:08:30;;;;;;;23.15;20.63;;;;;;;20.40;100.00;100547.09;3583562;40;20060;-64
2023/08/25 04:10:56;;;;;;;21.13;19.05;;;;;;;20.44;100.00;100561.28;3582041;40;20051;-65
2023/08/25 04:13:21;;;;;;;22.77;20.50;;;;;;;20.43;100.00;100551.38;3587887;40;20076;-65
2023/08/25 04:15:58;;;;;;;21.98;19.77;;;;;;;20.43;100.00;100556.84;3583148;40;20086;-64
2023/08/25 04:18:25;;;;;;;23.00;20.52;;;;;;;20.46;100.00;100552.94;3580735;40;20056;-64
2023/08/25 04:20:52;;;;;;;23.73;21.30;;;;;;;20.45;100.00;100551.19;3580081;40;20056;-64
2023/08/25 04:23:17;;;;;;;22.88;20.58;;;;;;;20.42;100.00;100549.66;3586244;40;20060;-64
2023/08/25 04:25:43;;;;;;;22.15;19.85;;;;;;;20.41;100.00;100547.94;3585493;40;20091;-64
2023/08/25 04:28:10;;;;;;;22.33;20.15;;;;;;;20.40;100.00;100540.78;3584223;40;20102;-65
2023/08/25 04:30:35;;;;;;;21.27;19.25;;;;;;;20.39;100.00;100547.25;3585435;40;20794;-64
2023/08/25 04:33:01;;;;;;;22.13;19.88;;;;;;;20.39;100.00;100542.66;3578109;40;20055;-65
2023/08/25 04:35:27;;;;;;;21.85;19.63;;;;;;;20.41;100.00;100553.41;3584955;40;20099;-63
2023/08/25 04:37:52;;;;;;;22.77;20.48;;;;;;;20.39;100.00;100547.25;3586068;40;20055;-64
2023/08/25 04:40:20;;;;;;;22.27;20.15;;;;;;;20.39;100.00;100547.25;3583137;40;20048;-64
2023/08/25 04:42:46;;;;;;;21.00;19.00;;;;;;;20.39;100.00;100555.44;3586779;40;20051;-65
2023/08/25 04:45:14;;;;;;;21.23;19.13;;;;;;;20.36;100.00;100561.22;3575132;40;20067;-64
2023/08/25 04:47:40;;;;;;;21.10;18.90;;;;;;;20.38;100.00;100556.47;3584956;40;20060;-65
2023/08/25 04:50:08;;;;;;;21.27;19.30;;;;;;;20.39;100.00;100550.88;3584568;40;20052;-64
2023/08/25 04:52:37;;;;;;;22.00;19.73;;;;;;;20.39;100.00;100544.53;3584957;40;20055;-65
2023/08/25 04:55:04;;;;;;;20.83;18.70;;;;;;;20.40;100.00;100547.09;3583003;40;20371;-64
2023/08/25 04:57:30;;;;;;;21.95;19.73;;;;;;;20.41;100.00;100545.22;3586646;40;20072;-64
2023/08/25 04:59:56;;;;;;;22.05;20.05;;;;;;;20.40;100.00;100532.59;3585621;40;20051;-64
2023/08/25 05:02:23;;;;;;;20.50;18.58;;;;;;;20.40;100.00;100536.19;3586463;40;20048;-64
2023/08/25 05:04:49;;;;;;;21.30;19.30;;;;;;;20.41;100.00;100531.56;3584440;40;20064;-64
2023/08/25 05:07:14;;;;;;;21.65;19.40;;;;;;;20.40;100.00;100524.41;3583301;40;20052;-64
2023/08/25 05:09:40;;;;;;;20.38;18.35;;;;;;;20.39;100.00;100520.84;3581395;40;20111;-65
2023/08/25 05:12:07;;;;;;;21.15;19.02;;;;;;;20.38;100.00;100520.97;3585963;40;20074;-64
2023/08/25 05:14:32;;;;;;;20.75;18.65;;;;;;;20.37;100.00;100528.31;3583392;40;20136;-65
2023/08/25 05:16:58;;;;;;;19.27;17.42;;;;;;;20.35;100.00;100530.34;3584789;40;20143;-64
2023/08/25 05:19:23;;;;;;;20.20;18.20;;;;;;;20.36;100.00;100528.47;3586246;40;20064;-64
2023/08/25 05:21:49;;;;;;;19.73;17.83;;;;;;;20.34;100.00;100531.38;3584124;40;20067;-65
2023/08/25 05:24:24;;;;;;;22.02;17.40;;;;;;;20.32;100.00;100533.41;3580166;40;20055;-64
2023/08/25 05:26:54;;;;;;;20.08;18.10;;;;;;;20.34;100.00;100531.38;3588145;40;20048;-65
2023/08/25 05:29:28;;;;;;;19.27;17.38;;;;;;;20.36;100.00;100534.81;3586980;40;20176;-65
2023/08/25 05:31:55;;;;;;;18.23;16.52;;;;;;;20.38;100.00;100549.13;3584222;40;21202;-64
2023/08/25 05:34:21;;;;;;;18.30;16.00;;;;;;;20.46;100.00;100544.75;3575802;40;20044;-64
2023/08/25 05:36:46;;;;;;;16.60;14.88;;;;;;;20.50;100.00;100525.13;3583227;40;20059;-64
2023/08/25 05:39:13;;;;;;;13.35;12.05;;;;;;;20.55;100.00;100517.31;3583782;40;20048;-63
2023/08/25 05:41:39;;;;;;;12.80;11.57;;;;;;;20.58;100.00;100522.44;3585605;40;20573;-64
2023/08/25 05:44:05;;;;;;;11.27;9.93;;;;;;;20.61;100.00;100519.38;3586451;40;20122;-64
2023/08/25 05:46:31;;;;;;;9.48;8.18;;;;;;;20.59;100.00;100518.69;3583799;40;20052;-64
2023/08/25 05:48:58;;;;;;;10.50;8.27;;;;;;;20.61;100.00;100521.22;3584266;40;20361;-64
2023/08/25 05:51:25;;;;;;;10.07;8.30;;;;;;;20.63;100.00;100521.94;3587163;40;20060;-64
2023/08/25 05:53:51;;;;;;;8.57;7.65;;;;;;;20.62;100.00;100507.44;3585805;40;20310;-64
2023/08/25 05:56:17;;;;;;;8.57;7.68;;;;;;;20.66;100.00;100509.81;3585284;40;20048;-64
2023/08/25 05:58:43;;;;;;;8.60;7.43;;;;;;;20.66;100.00;100518.00;3582454;40;20055;-64
2023/08/25 06:01:11;;;;;;;9.68;7.55;;;;;;;20.66;100.00;100523.47;3584241;40;20083;-64
2023/08/25 06:03:38;;;;;;;10.18;8.00;;;;;;;20.63;100.00;100519.19;3587027;40;20397;-64
2023/08/25 06:06:04;;;;;;;10.20;7.70;;;;;;;20.58;100.00;100500.59;3581400;40;20044;-64
2023/08/25 06:08:30;;;;;;;10.45;7.88;;;;;;;20.57;100.00;100487.94;3587508;40;20052;-64
2023/08/25 06:10:57;;;;;;;10.27;8.40;;;;;;;20.59;100.00;100501.44;3582383;40;20076;-64
2023/08/25 06:13:23;;;;;;;11.45;7.93;;;;;;;20.58;100.00;100505.19;3582104;40;20063;-64
2023/08/25 06:15:48;;;;;;;8.50;7.55;;;;;;;20.57;100.00;100507.06;3583222;40;20056;-64
2023/08/25 06:18:15;;;;;;;10.15;7.30;;;;;;;20.55;100.00;100517.31;3585064;40;20156;-63
2023/08/25 06:20:42;;;;;;;9.23;7.80;;;;;;;20.53;100.00;100513.88;3576797;40;20639;-64
2023/08/25 06:23:08;;;;;;;13.70;8.88;;;;;;;20.51;100.00;100523.22;3584502;40;20052;-64
2023/08/25 06:25:34;;;;;;;9.80;7.93;;;;;;;20.48;100.00;100510.75;3583964;40;20052;-63
2023/08/25 06:28:00;;;;;;;10.18;7.45;;;;;;;20.48;100.00;100529.03;3581551;40;20055;-64
2023/08/25 06:30:26;;;;;;;9.13;7.60;;;;;;;20.36;100.00;100525.75;3585398;40;20052;-65
2023/08/25 06:32:52;;;;;;;9.60;7.78;;;;;;;20.42;100.00;100533.28;3581301;40;20406;-65
2023/08/25 06:35:18;;;;;;;9.95;7.93;;;;;;;20.42;100.00;100527.81;3583596;40;20062;-65
2023/08/25 06:37:44;;;;;;;9.23;7.78;;;;;;;20.42;100.00;100522.34;3582618;40;20070;-66
2023/08/25 06:40:10;;;;;;;9.80;7.20;;;;;;;20.37;100.00;100502.91;3585976;40;20257;-69
2023/08/25 06:42:37;;;;;;;11.45;7.90;;;;;;;20.39;100.00;100500.84;3583969;40;20383;-65
2023/08/25 06:45:10;;;;;;;9.15;7.30;;;;;;;20.35;100.00;100494.00;3584056;40;20113;-65
2023/08/25 06:47:38;;;;;;;9.80;7.40;;;;;;;20.27;100.00;100496.72;3585041;40;20068;-65
2023/08/25 06:50:08;;;;;;;11.73;7.55;;;;;;;20.32;100.00;100510.72;3581875;40;20067;-65
2023/08/25 06:52:36;;;;;;;8.52;7.72;;;;;;;20.28;100.00;100498.44;3584450;40;20176;-65
2023/08/25 06:55:02;;;;;;;9.25;7.63;;;;;;;20.32;100.00;100499.81;3586597;40;20052;-65
2023/08/25 06:57:28;;;;;;;9.52;8.43;;;;;;;20.31;100.00;100484.44;3584169;40;20396;-65
2023/08/25 06:59:54;;;;;;;12.85;8.38;;;;;;;20.28;100.00;100447.41;3582822;40;20056;-65
2023/08/25 07:02:19;;;;;;;11.35;8.10;;;;;;;20.26;100.00;100434.94;3584698;40;20512;-65
2023/08/25 07:04:45;;;;;;;10.23;8.15;;;;;;;20.21;100.00;100451.00;3573737;40;20060;-65
2023/08/25 07:07:10;;;;;;;10.80;8.38;;;;;;;20.15;100.00;100461.53;3587068;40;20058;-65
2023/08/25 07:09:37;;;;;;;12.02;9.27;;;;;;;20.11;100.00;100471.09;3584806;40;20452;-65
2023/08/25 07:12:04;;;;;;;11.45;9.55;;;;;;;20.09;100.00;100475.84;3574493;40;20087;-65
2023/08/25 07:14:31;;;;;;;12.90;9.05;;;;;;;20.13;100.00;100457.25;3582931;40;20060;-65
2023/08/25 07:16:57;;;;;;;15.70;10.65;;;;;;;20.11;100.00;100452.00;3582124;40;20098;-65
2023/08/25 07:19:23;;;;;;;12.32;10.38;;;;;;;20.10;100.00;100447.53;3583872;40;20415;-64
2023/08/25 07:21:48;;;;;;;11.65;10.40;;;;;;;20.08;100.00;100493.25;3586130;40;20207;-64
2023/08/25 07:24:14;;;;;;;12.95;11.50;;;;;;;20.05;100.00;100559.06;3581330;40;20090;-66
2023/08/25 07:26:40;;;;;;;18.33;10.98;;;;;;;20.00;100.00;100596.03;3583252;40;20052;-69
2023/08/25 07:29:06;;;;;;;15.18;10.30;;;;;;;19.91;100.00;100562.38;3585492;40;20074;-66
2023/08/25 07:31:32;;;;;;;13.70;9.95;;;;;;;19.88;100.00;100532.69;3581890;40;20067;-66
2023/08/25 07:33:58;;;;;;;12.98;9.10;;;;;;;19.82;100.00;100533.34;3582586;40;20090;-66
2023/08/25 07:36:24;;;;;;;13.80;9.80;;;;;;;19.76;100.00;100540.34;3581517;40;20059;-66
2023/08/25 07:38:50;;;;;;;13.15;10.25;;;;;;;19.82;100.00;100536.06;3584164;40;20048;-66
2023/08/25 07:41:20;;;;;;;11.32;9.65;;;;;;;19.85;100.00;100535.75;3585897;40;20055;-65
2023/08/25 07:43:46;;;;;;;11.68;10.10;;;;;;;19.90;100.00;100536.13;3585462;40;20064;-66
2023/08/25 07:46:12;;;;;;;11.50;10.18;;;;;;;19.95;100.00;100547.44;3577331;40;20378;-65
2023/08/25 07:48:37;;;;;;;13.90;9.82;;;;;;;19.99;100.00;100556.16;3587041;40;20114;-66
2023/08/25 07:51:04;;;;;;;12.57;9.80;;;;;;;20.00;100.00;100550.50;3585644;40;20062;-64
2023/08/25 07:53:31;;;;;;;12.63;9.98;;;;;;;20.03;100.00;100536.53;3585190;40;20052;-65
2023/08/25 07:55:58;;;;;;;11.60;9.15;;;;;;;20.03;100.00;100544.72;3587180;40;20056;-65
2023/08/25 07:58:24;;;;;;;11.15;9.07;;;;;;;20.01;100.00;100535.84;3587541;40;20042;-65
2023/08/25 08:00:50;;;;;;;11.27;8.98;;;;;;;19.62;100.00;100479.00;3584194;40;20055;-65
2023/08/25 08:03:16;;;;;;;10.73;9.25;;;;;;;19.95;100.00;100525.59;3577652;40;20051;-65
2023/08/25 08:05:42;;;;;;;12.20;8.85;;;;;;;19.94;100.00;100529.31;3589128;40;20071;-65
2023/08/25 08:08:09;;;;;;;12.85;8.65;;;;;;;;;;3587601;40;20309;-65
2023/08/25 08:10:36;;;;;;;11.15;9.75;;;;;;;19.99;100.00;100554.25;3589291;40;20173;-64
2023/08/25 08:13:03;;;;;;;10.60;9.05;;;;;;;20.01;100.00;100549.47;3584983;40;20344;-65
2023/08/25 08:15:29;;;;;;;9.65;8.60;;;;;;;20.00;100.00;100553.22;3585678;40;20125;-65
2023/08/25 08:17:55;;;;;;;10.60;9.30;;;;;;;19.99;100.00;100553.41;3584903;40;20056;-64
2023/08/25 08:20:21;;;;;;;9.95;9.05;;;;;;;19.93;100.00;100538.53;3582195;40;20052;-64
2023/08/25 08:22:46;;;;;;;13.02;8.98;;;;;;;19.95;100.00;100520.16;3582522;40;20044;-65
2023/08/25 08:25:14;;;;;;;10.48;9.10;;;;;;;19.97;100.00;100520.81;3585243;40;20055;-65
2023/08/25 08:27:41;;;;;;;10.80;9.45;;;;;;;19.94;100.00;100515.69;3582781;40;21818;-65
2023/08/25 08:30:09;;;;;;;10.18;9.10;;;;;;;19.94;100.00;100523.88;3576532;40;20072;-65
2023/08/25 08:32:38;;;;;;;10.35;9.35;;;;;;;19.94;100.00;100516.53;3583580;40;20060;-66
2023/08/25 08:35:07;;;;;;;12.38;9.85;;;;;;;19.86;100.00;100504.75;3583901;40;20060;-66
2023/08/25 08:37:34;;;;;;;12.15;10.40;;;;;;;19.86;100.00;100521.97;3585372;40;20110;-66
2023/08/25 08:40:00;;;;;;;11.40;10.30;;;;;;;19.91;100.00;100559.66;3582659;40;20315;-66
2023/08/25 08:42:29;;;;;;;12.32;10.90;;;;;;;19.85;100.00;100546.66;3586572;40;20054;-66
2023/08/25 08:45:06;;;;;;;12.80;11.38;;;;;;;19.87;100.00;100545.50;3587439;40;20052;-66
2023/08/25 08:47:34;;;;;;;14.07;12.18;;;;;;;19.87;100.00;100544.66;3583562;40;20060;-66
2023/08/25 08:50:02;;;;;;;13.25;11.85;;;;;;;19.88;100.00;100551.81;3583895;40;20051;-66
2023/08/25 08:52:30;;;;;;;13.27;12.07;;;;;;;19.89;100.00;100559.00;3583048;40;20089;-66
2023/08/25 08:54:57;;;;;;;14.63;13.23;;;;;;;19.87;100.00;100566.47;3583019;40;20052;-66
2023/08/25 08:57:25;;;;;;;15.27;13.77;;;;;;;19.80;100.00;100558.06;3584105;40;20071;-65
2023/08/25 08:59:52;;;;;;;14.27;12.82;;;;;;;19.86;100.00;100565.63;3586718;40;20051;-66
2023/08/25 09:02:20;;;;;;;13.80;12.50;;;;;;;19.84;100.00;100561.34;3582483;40;20048;-66
2023/08/25 09:04:51;;;;;;;13.85;12.45;;;;;;;19.83;100.00;100540.53;3586857;40;20052;-65
2023/08/25 09:07:26;;;;;;;14.30;12.90;;;;;;;19.83;100.00;100519.56;3587156;40;20052;-65
2023/08/25 09:09:52;;;;;;;13.57;12.18;;;;;;;19.85;100.00;100531.19;3585978;40;20044;-66
2023/08/25 09:12:19;;;;;;;14.05;12.55;;;;;;;19.87;100.00;100561.00;3582665;40;20327;-66
2023/08/25 09:14:46;;;;;;;13.85;12.55;;;;;;;19.85;100.00;100563.91;3584671;40;20759;-65
2023/08/25 09:17:14;;;;;;;14.57;13.18;;;;;;;19.84;100.00;100547.69;3584686;40;20091;-65
2023/08/25 09:19:41;;;;;;;14.45;13.05;;;;;;;19.85;100.00;100524.84;3582559;40;20306;-66
2023/08/25 09:22:13;;;;;;;15.32;13.82;;;;;;;19.88;100.00;100491.78;3583755;40;20099;-65
2023/08/25 09:24:42;;;;;;;14.90;13.43;;;;;;;19.78;100.00;100455.59;3576681;40;20048;-65
2023/08/25 09:27:25;;;;;;;14.52;13.13;;;;;;;19.99;100.00;100521.53;3586443;40;20134;-65
2023/08/25 09:30:06;;;;;;;15.52;14.02;;;;;;;20.04;100.00;100535.50;3583338;40;20048;-65
2023/08/25 09:32:32;;;;;;;15.57;14.05;;;;;;;20.10;100.00;100553.97;3573608;40;20060;-65
2023/08/25 09:35:14;;;;;;;15.18;13.65;;;;;;;20.10;100.00;100553.97;3584933;40;20136;-65
2023/08/25 09:37:43;;;;;;;15.48;14.07;;;;;;;20.15;100.00;100562.53;3585541;40;20059;-64
2023/08/25 09:40:14;;;;;;;14.55;13.20;;;;;;;20.12;100.00;100543.75;3583718;40;20336;-64
2023/08/25 09:42:40;;;;;;;14.77;13.48;;;;;;;20.12;100.00;100530.09;3586709;40;20818;-64
2023/08/25 09:45:07;;;;;;;15.15;13.65;;;;;;;20.14;100.00;100530.81;3583561;40;20068;-64
2023/08/25 09:47:33;;;;;;;15.52;14.23;;;;;;;20.15;100.00;100537.97;3583037;40;20071;-64
2023/08/25 09:49:59;;;;;;;15.88;14.30;;;;;;;20.19;100.00;100546.66;3582051;40;20096;-64
2023/08/25 09:52:29;;;;;;;16.27;14.70;;;;;;;20.27;100.00;100548.59;3583655;40;20104;-64
2023/08/25 09:54:55;;;;;;;17.27;15.57;;;;;;;20.33;100.00;100535.16;3584320;40;20036;-65
2023/08/25 09:57:23;;;;;;;19.38;17.50;;;;;;;20.47;100.00;100533.63;3584315;40;20056;-64
2023/08/25 09:59:49;;;;;;;15.57;14.23;;;;;;;20.53;100.00;100541.19;3582925;40;20056;-64
2023/08/25 10:02:16;;;;;;;16.77;15.05;;;;;;;20.58;100.00;100536.09;3583816;40;20355;-64
2023/08/25 10:04:43;;;;;;;15.75;14.35;;;;;;;20.67;100.00;100533.38;3585245;40;20076;-64
2023/08/25 10:07:10;;;;;;;15.27;13.98;;;;;;;20.76;100.00;100546.03;3582423;40;20369;-64
2023/08/25 10:09:35;;;;;;;14.68;13.38;;;;;;;20.81;100.00;100552.69;3585078;40;20322;-64
2023/08/25 10:12:04;;;;;;;16.25;14.60;;;;;;;20.91;100.00;100530.69;3586128;39;20058;-64
2023/08/25 10:14:33;;;;;;;16.45;14.18;;;;;;;21.10;100.00;100537.69;3583457;40;20135;-64
2023/08/25 10:17:01;;;;;;;13.93;12.63;;;;;;;21.17;100.00;100548.81;3583746;40;20358;-64
2023/08/25 10:19:31;;;;;;;14.00;12.70;;;;;;;21.23;100.00;100554.44;3584737;40;20064;-64
2023/08/25 10:22:01;;;;;;;13.90;12.50;;;;;;;21.28;100.00;100546.59;3582071;40;20068;-64
2023/08/25 10:24:29;;;;;;;12.50;11.45;;;;;;;21.38;100.00;100534.66;3582902;40;20051;-64
2023/08/25 10:26:57;;;;;;;12.90;11.65;;;;;;;21.36;100.00;100529.34;3585571;40;20059;-63
2023/08/25 10:29:25;;;;;;;13.07;11.88;;;;;;;21.49;100.00;100532.41;3583861;40;20067;-64
2023/08/25 10:32:02;;;;;;;13.38;12.07;;;;;;;21.61;100.00;100534.78;3586229;40;20120;-66
2023/08/25 10:34:42;;;;;;;12.65;11.50;;;;;;;21.70;99.71;100545.53;3581639;40;20413;-65
2023/08/25 10:37:22;;;;;;;11.43;10.32;;;;;;;21.70;98.07;100555.63;3582137;40;20071;-65
2023/08/25 10:39:59;;;;;;;11.95;10.75;;;;;;;21.64;98.03;100556.34;3583239;40;20052;-67
2023/08/25 10:42:34;;;;;;;11.13;10.20;;;;;;;21.54;97.92;100559.25;3584671;40;20048;-65
2023/08/25 10:45:11;;;;;;;12.35;11.15;;;;;;;21.50;97.95;100572.44;3587722;40;20056;-65
2023/08/25 10:47:46;;;;;;;13.10;11.85;;;;;;;21.41;98.12;100570.72;3584601;40;20103;-65
2023/08/25 10:50:19;;;;;;;13.38;11.98;;;;;;;21.33;98.74;100562.47;3585610;40;20051;-65
2023/08/25 10:52:52;;;;;;;14.93;13.35;;;;;;;21.28;99.86;100568.47;3587555;40;20110;-64
2023/08/25 10:55:32;;;;;;;;;;;;;;;21.21;100.00;100552.91;3582703;40;20052;-64
2023/08/25 10:58:03;;;;;;;16.38;14.82;;;;;;;21.20;100.00;100551.19;3583161;40;19940;-70
2023/08/25 11:00:33;;;;;;;16.30;14.80;;;;;;;21.17;100.00;100565.22;3574268;40;20074;-64
2023/08/25 11:03:01;;;;;;;15.93;14.20;;;;;;;21.12;100.00;100551.19;3582587;40;20400;-65
2023/08/25 11:05:31;;;;;;;15.27;13.85;;;;;;;21.15;100.00;100546.22;3584111;40;20094;-64
2023/08/25 11:08:03;;;;;;;19.10;17.38;;;;;;;21.17;100.00;100543.34;3585552;40;20063;-65
2023/08/25 11:10:35;;;;;;;17.50;16.00;;;;;;;21.16;100.00;100545.22;3583560;40;20056;-64